.
WxDataArchive / Data Records for 2006-05-17
2006-05-16 May 2006 2006-05-18

Data Records for Wednesday, 17 May 2006

Time	Temp	Chill	HIndex	Humid	Dewpt	 Wind 	HiWind	WindDir	Rain 	Barom 
-----	----	-----	------	-----	-----	------	------	-------	-----	----- 
00:00	51.3	51.3	51.3	91	48.8	0	1	248	0.00	29.691 
00:05	51.3	51.3	51.3	91	48.8	0	1	248	0.00	29.691 
00:10	51.4	51.4	51.4	91	48.9	0	1	248	0.00	29.691 
00:15	51.4	51.4	51.4	91	48.9	0	0	---	0.00	29.688 
00:20	51.4	51.4	51.4	91	48.9	0	1	248	0.00	29.688 
00:25	51.4	51.4	51.4	91	48.9	0	0	---	0.00	29.688 
00:30	51.4	51.4	51.4	91	48.9	0	1	248	0.00	29.685 
00:35	51.4	51.4	51.4	91	48.9	0	1	248	0.00	29.685 
00:40	51.6	51.6	51.6	91	49.1	0	2	248	0.00	29.685 
00:45	51.6	51.6	51.6	91	49.1	0	3	248	0.00	29.671 
00:50	51.7	51.7	51.7	91	49.2	1	2	248	0.00	29.671 
00:55	51.9	51.9	51.9	91	49.4	0	2	248	0.00	29.671 
01:00	51.9	51.9	51.9	90	49.1	1	3	248	0.00	29.668 
01:05	51.9	51.9	51.9	90	49.1	1	3	248	0.00	29.668 
01:10	51.9	51.9	51.9	90	49.1	1	2	225	0.00	29.668 
01:15	51.9	51.9	51.9	90	49.1	0	2	225	0.00	29.655 
01:20	51.9	51.9	51.9	90	49.1	1	2	248	0.00	29.655 
01:25	51.7	51.7	51.7	90	48.9	0	2	248	0.00	29.655 
01:30	51.7	51.7	51.7	90	48.9	0	1	248	0.00	29.657 
01:35	51.6	51.6	51.6	90	48.8	0	1	248	0.00	29.657 
01:40	51.4	51.4	51.4	90	48.6	0	1	248	0.00	29.657 
01:45	51.3	51.3	51.3	90	48.5	0	2	248	0.00	29.652 
01:50	51.3	51.3	51.3	91	48.8	0	1	248	0.00	29.652 
01:55	51.3	51.3	51.3	91	48.8	0	1	248	0.00	29.652 
02:00	51.3	51.3	51.3	91	48.8	0	1	248	0.00	29.651 
02:05	51.1	51.1	51.1	91	48.6	0	1	248	0.00	29.651 
02:10	51.1	51.1	51.1	91	48.6	0	1	248	0.00	29.651 
02:15	51.0	51.0	51.0	91	48.5	0	1	248	0.00	29.652 
02:20	50.8	50.8	50.8	91	48.3	0	1	248	0.00	29.652 
02:25	50.7	50.7	50.7	91	48.2	1	3	248	0.00	29.652 
02:30	50.7	50.7	50.7	92	48.5	0	2	248	0.00	29.646 
02:35	50.5	50.5	50.5	92	48.3	0	1	248	0.00	29.646 
02:40	50.4	50.4	50.4	92	48.2	0	1	248	0.00	29.646 
02:45	50.4	50.4	50.4	92	48.2	0	1	248	0.00	29.651 
02:50	50.4	50.4	50.4	92	48.2	1	2	248	0.00	29.651 
02:55	50.4	50.4	50.4	92	48.2	1	2	248	0.00	29.651 
03:00	50.4	50.4	50.4	92	48.2	1	2	248	0.00	29.645 
03:05	50.5	50.5	50.5	92	48.3	1	2	248	0.00	29.645 
03:10	50.5	50.5	50.5	92	48.3	1	2	248	0.00	29.645 
03:15	50.7	50.7	50.7	92	48.5	0	2	248	0.00	29.639 
03:20	50.8	50.8	50.8	92	48.6	1	2	248	0.00	29.639 
03:25	50.8	50.8	50.8	92	48.6	1	2	248	0.00	29.639 
03:30	51.0	51.0	51.0	92	48.8	1	3	248	0.00	29.638 
03:35	51.0	51.0	51.0	91	48.5	2	3	248	0.00	29.638 
03:40	51.0	51.0	51.0	91	48.5	1	3	248	0.00	29.638 
03:45	51.0	51.0	51.0	91	48.5	1	2	248	0.00	29.627 
03:50	51.0	51.0	51.0	91	48.5	1	3	248	0.00	29.627 
03:55	51.0	51.0	51.0	91	48.5	2	3	248	0.00	29.627 
04:00	51.0	51.0	51.0	90	48.2	2	4	270	0.00	29.629 
04:05	51.0	51.0	51.0	90	48.2	1	3	315	0.00	29.629 
04:10	51.0	51.0	51.0	90	48.2	1	3	315	0.00	29.629 
04:15	50.8	50.8	50.8	90	48.0	1	4	225	0.00	29.638 
04:20	50.8	50.8	50.8	90	48.0	1	2	248	0.00	29.638 
04:25	50.8	50.8	50.8	90	48.0	1	2	248	0.00	29.638 
04:30	50.8	50.8	50.8	90	48.0	1	3	248	0.00	29.635 
04:35	50.8	50.8	50.8	90	48.0	1	3	292	0.00	29.635 
04:40	50.8	50.8	50.8	90	48.0	1	4	248	0.00	29.635 
04:45	50.7	50.7	50.7	90	47.9	1	3	248	0.00	29.627 
04:50	50.7	50.7	50.7	90	47.9	1	2	248	0.00	29.627 
04:55	50.7	50.7	50.7	90	47.9	1	3	248	0.00	29.627 
05:00	50.5	50.5	50.5	90	47.7	1	3	292	0.00	29.626 
05:05	50.5	50.5	50.5	90	47.7	1	5	248	0.00	29.626 
05:10	50.5	50.5	50.5	90	47.7	1	3	315	0.00	29.626 
05:15	50.4	50.4	50.4	90	47.6	0	1	315	0.00	29.626 
05:20	50.5	50.5	50.5	90	47.7	1	2	315	0.00	29.626 
05:25	50.5	50.5	50.5	90	47.7	1	4	270	0.00	29.626 
05:30	50.5	50.5	50.5	90	47.7	1	3	248	0.00	29.622 
05:35	50.4	50.4	50.4	90	47.6	1	2	248	0.00	29.622 
05:40	50.4	50.4	50.4	90	47.6	1	2	248	0.00	29.622 
05:45	50.2	50.2	50.2	90	47.4	1	2	248	0.00	29.617 
05:50	50.1	50.1	50.1	90	47.3	0	2	248	0.00	29.617 
05:55	50.1	50.1	50.1	90	47.3	1	2	248	0.00	29.617 
06:00	49.9	49.9	49.9	90	47.1	0	2	248	0.00	29.616 
06:05	49.8	49.8	49.8	90	47.0	0	2	248	0.00	29.616 
06:10	49.8	49.8	49.8	91	47.3	1	2	248	0.00	29.616 
06:15	49.6	49.6	49.6	91	47.1	0	2	248	0.00	29.620 
06:20	49.6	49.6	49.6	91	47.1	1	2	248	0.00	29.620 
06:25	49.6	49.6	49.6	91	47.1	0	2	248	0.00	29.620 
06:30	49.8	49.8	49.8	91	47.3	0	2	248	0.00	29.623 
06:35	49.8	49.8	49.8	91	47.3	0	2	248	0.00	29.623 
06:40	49.8	49.8	49.8	91	47.3	0	2	248	0.00	29.623 
06:45	49.8	49.8	49.8	91	47.3	0	2	248	0.00	29.624 
06:50	49.8	49.8	49.8	91	47.3	1	2	248	0.00	29.624 
06:55	49.8	49.8	49.8	91	47.3	0	1	248	0.00	29.624 
07:00	49.8	49.8	49.8	91	47.3	0	1	248	0.00	29.620 
07:05	49.8	49.8	49.8	91	47.3	1	2	248	0.00	29.620 
07:10	49.9	49.9	49.9	91	47.4	0	2	248	0.00	29.620 
07:15	50.1	50.1	50.1	91	47.6	0	2	248	0.00	29.625 
07:20	50.2	50.2	50.2	91	47.7	1	2	248	0.00	29.625 
07:25	50.5	50.5	50.5	90	47.7	0	3	248	0.00	29.625 
07:30	50.8	50.8	50.8	89	47.7	1	2	248	0.00	29.624 
07:35	51.1	51.1	51.1	89	48.0	1	2	248	0.00	29.624 
07:40	51.6	51.6	51.6	88	48.2	1	3	248	0.00	29.624 
07:45	51.9	51.9	51.9	88	48.5	1	2	248	0.00	29.622 
07:50	52.2	52.2	52.2	87	48.4	1	3	248	0.00	29.622 
07:55	52.6	52.6	52.6	86	48.5	2	3	248	0.00	29.622 
08:00	52.9	52.9	52.9	85	48.5	1	4	270	0.00	29.620 
08:05	53.2	53.2	53.2	84	48.5	2	4	270	0.00	29.620 
08:10	53.5	53.5	53.5	84	48.8	2	4	270	0.00	29.620 
08:15	53.8	53.8	53.8	83	48.8	1	3	292	0.00	29.624 
08:20	54.1	54.1	54.1	82	48.7	2	3	270	0.00	29.624 
08:25	54.4	54.4	54.4	81	48.7	2	6	270	0.00	29.624 
08:30	54.7	54.7	54.7	80	48.7	2	5	270	0.00	29.625 
08:35	55.1	55.1	55.1	80	49.0	2	3	315	0.00	29.625 
08:40	55.4	55.4	55.4	81	49.7	2	4	270	0.00	29.625 
08:45	55.7	55.7	55.7	78	48.9	1	3	315	0.00	29.623 
08:50	56.2	56.2	56.2	77	49.1	1	3	248	0.00	29.623 
08:55	56.3	56.3	56.3	76	48.8	2	4	248	0.00	29.623 
09:00	56.6	56.6	56.6	76	49.1	1	3	315	0.00	29.624 
09:05	56.9	56.9	56.9	75	49.1	1	3	315	0.00	29.624 
09:10	57.3	57.3	57.3	75	49.4	1	3	292	0.00	29.624 
09:15	57.8	57.8	57.8	74	49.6	1	4	270	0.00	29.624 
09:20	58.1	58.1	58.1	71	48.7	1	3	338	0.00	29.624 
09:25	58.4	58.4	58.4	73	49.8	1	3	270	0.00	29.624 
09:30	59.0	59.0	59.0	70	49.2	2	4	270	0.00	29.624 
09:35	59.2	59.2	59.2	69	49.0	2	4	270	0.00	29.624 
09:40	59.2	59.2	59.2	70	49.4	2	4	270	0.00	29.624 
09:45	59.5	59.5	59.5	70	49.7	1	3	270	0.00	29.624 
09:50	59.5	59.5	59.5	69	49.3	2	4	270	0.00	29.624 
09:55	59.5	59.5	59.5	69	49.3	1	3	292	0.00	29.624 
10:00	59.0	59.0	59.0	69	48.8	2	4	315	0.00	29.625 
10:05	58.6	58.6	58.6	70	48.8	2	3	270	0.00	29.625 
10:10	58.7	58.7	58.7	70	48.9	1	3	270	0.00	29.625 
10:15	58.9	58.9	58.9	67	48.0	1	4	270	0.00	29.623 
10:20	59.5	59.5	59.5	69	49.3	1	4	315	0.00	29.623 
10:25	59.9	59.9	59.9	67	48.9	2	4	248	0.00	29.623 
10:30	60.4	60.4	60.4	65	48.6	2	4	270	0.00	29.623 
10:35	60.7	60.7	60.7	67	49.7	2	4	248	0.00	29.623 
10:40	61.5	61.5	61.5	69	51.2	2	5	248	0.00	29.623 
10:45	62.0	62.0	62.0	66	50.5	1	4	292	0.00	29.613 
10:50	62.1	62.1	62.1	62	48.9	2	4	270	0.00	29.613 
10:55	62.4	62.4	62.4	62	49.2	2	4	270	0.00	29.613 
11:00	62.9	62.9	62.9	59	48.3	2	4	292	0.00	29.614 
11:05	62.9	62.9	62.9	59	48.3	2	3	315	0.00	29.614 
11:10	62.7	62.7	62.7	58	47.7	1	4	270	0.00	29.614 
11:15	62.7	62.7	62.7	56	46.8	1	3	270	0.00	29.613 
11:20	62.9	62.9	62.9	57	47.4	2	3	315	0.00	29.613 
11:25	62.7	62.7	62.7	56	46.8	2	6	315	0.00	29.613 
11:30	63.1	63.1	63.1	58	48.1	1	4	270	0.00	29.614 
11:35	63.4	63.4	63.4	56	47.4	1	4	315	0.00	29.614 
11:40	63.5	63.5	63.5	61	49.8	1	4	315	0.00	29.614 
11:45	64.3	64.3	64.3	59	49.7	2	4	315	0.00	29.607 
11:50	65.3	65.3	65.3	56	49.2	2	4	248	0.00	29.607 
11:55	66.1	66.1	66.1	54	49.0	2	3	248	0.00	29.607 
12:00	66.9	66.9	66.9	58	51.6	2	5	270	0.00	29.599 
12:05	66.9	66.9	66.9	52	48.7	2	4	292	0.00	29.599 
12:10	67.3	67.3	67.3	56	51.1	2	4	270	0.00	29.599 
12:15	67.4	67.4	67.4	53	49.7	2	3	270	0.00	29.598 
12:20	67.4	67.4	67.4	52	49.2	3	7	270	0.00	29.598 
12:25	67.8	67.8	67.8	51	49.0	2	4	248	0.00	29.598 
12:30	68.4	68.4	68.4	52	50.1	2	5	270	0.00	29.591 
12:35	68.6	68.6	68.6	50	49.2	2	4	248	0.00	29.591 
12:40	68.8	68.8	68.8	53	51.0	1	3	315	0.00	29.591 
12:45	68.8	68.8	68.8	52	50.4	2	4	292	0.00	29.585 
12:50	69.3	69.3	69.3	52	50.9	2	6	270	0.00	29.585 
12:55	69.4	69.4	69.4	53	51.5	3	6	248	0.00	29.585 
13:00	69.4	69.4	69.4	46	47.7	3	6	270	0.00	29.582 
13:05	69.8	69.8	69.8	53	51.9	2	5	315	0.00	29.582 
13:10	69.6	69.6	69.6	48	49.0	2	5	315	0.00	29.582 
13:15	69.9	69.9	69.9	53	52.0	1	6	292	0.00	29.575 
13:20	70.3	70.3	70.3	53	52.3	2	5	270	0.00	29.575 
13:25	70.3	70.3	70.3	53	52.3	2	6	270	0.00	29.575 
13:30	70.4	70.4	70.4	46	48.6	2	6	270	0.00	29.571 
13:35	70.8	70.8	70.8	49	50.7	2	4	338	0.00	29.571 
13:40	71.1	71.1	71.1	46	49.3	3	6	270	0.00	29.571 
13:45	71.8	71.8	71.8	48	51.0	2	4	315	0.00	29.568 
13:50	71.8	71.8	71.8	47	50.5	3	6	248	0.00	29.568 
13:55	71.1	71.1	71.1	46	49.3	4	7	270	0.00	29.568 
14:00	70.3	70.3	70.3	45	47.9	3	5	270	0.00	29.571 
14:05	69.9	69.9	69.9	48	49.3	2	4	292	0.00	29.571 
14:10	70.3	70.3	70.3	46	48.5	2	5	292	0.00	29.571 
14:15	70.8	70.8	70.8	48	50.1	3	6	270	0.00	29.567 
14:20	71.3	71.3	71.3	45	48.8	3	5	270	0.00	29.567 
14:25	72.0	72.0	72.0	45	49.5	3	6	270	0.00	29.567 
14:30	71.8	71.8	71.8	44	48.7	3	7	270	0.00	29.554 
14:35	71.8	71.8	71.8	44	48.7	4	11	270	0.00	29.554 
14:40	72.1	72.1	72.1	47	50.7	2	5	292	0.00	29.554 
14:45	72.0	72.0	72.0	47	50.7	2	5	270	0.00	29.550 
14:50	72.0	72.0	72.0	46	50.1	2	6	315	0.00	29.550 
14:55	72.1	72.1	72.1	47	50.7	3	6	270	0.00	29.550 
15:00	72.5	72.5	72.5	49	52.2	2	5	315	0.00	29.536 
15:05	72.8	72.8	72.8	47	51.4	2	5	270	0.00	29.536 
15:10	72.0	72.0	72.0	45	49.5	3	6	270	0.00	29.536 
15:15	71.3	71.3	71.3	46	49.4	2	7	248	0.00	29.532 
15:20	71.1	71.1	71.1	47	49.8	3	7	248	0.00	29.532 
15:25	70.9	70.9	70.9	47	49.7	3	5	270	0.00	29.532 
15:30	70.3	70.3	70.3	48	49.7	2	4	270	0.00	29.521 
15:35	69.6	69.6	69.6	51	50.7	2	4	315	0.00	29.521 
15:40	69.3	69.3	69.3	50	49.8	3	7	248	0.00	29.521 
15:45	69.1	69.1	69.1	51	50.2	4	10	270	0.00	29.525 
15:50	69.6	69.6	69.6	46	47.9	3	6	270	0.00	29.525 
15:55	69.6	69.6	69.6	48	49.0	2	6	248	0.00	29.525 
16:00	69.3	69.3	69.3	46	47.6	2	5	248	0.00	29.523 
16:05	68.3	68.3	68.3	46	46.7	2	4	248	0.00	29.523 
16:10	67.6	67.6	67.6	47	46.6	1	3	270	0.00	29.523 
16:15	66.6	66.6	66.6	50	47.4	1	2	270	0.00	29.524 
16:20	66.1	66.1	66.1	56	49.9	0	1	270	0.00	29.524 
16:25	65.8	65.8	65.8	56	49.7	0	1	270	0.00	29.524 
16:30	65.8	65.8	65.8	54	48.7	0	2	248	0.00	29.514 
16:35	66.0	66.0	66.0	58	50.8	1	2	248	0.00	29.514 
16:40	66.0	66.0	66.0	59	51.3	1	3	248	0.00	29.514 
16:45	65.8	65.8	65.8	59	51.1	1	4	270	0.00	29.510 
16:50	66.0	66.0	66.0	59	51.3	2	4	68	0.00	29.510 
16:55	65.6	65.6	65.6	58	50.4	2	6	270	0.00	29.510 
17:00	65.2	65.2	65.2	59	50.5	1	3	270	0.00	29.503 
17:05	64.7	64.7	64.7	60	50.5	2	5	248	0.00	29.503 
17:10	64.2	64.2	64.2	61	50.5	3	9	270	0.00	29.503 
17:15	63.4	63.4	63.4	64	51.0	1	5	248	0.00	29.504 
17:20	62.6	62.6	62.6	66	51.1	1	3	248	0.00	29.504 
17:25	61.8	61.8	61.8	69	51.5	0	2	292	0.00	29.504 
17:30	61.2	61.2	61.2	69	50.9	2	4	270	0.00	29.532 
17:35	60.2	60.2	60.2	73	51.5	2	5	270	0.01	29.532 
17:40	59.3	59.3	59.3	73	50.6	2	6	315	0.00	29.532 
17:45	58.3	58.3	58.3	76	50.8	3	7	270	0.00	29.546 
17:50	57.2	57.2	57.2	81	51.4	2	7	270	0.01	29.546 
17:55	56.5	56.5	56.5	84	51.7	2	8	292	0.01	29.546 
18:00	55.9	55.9	55.9	86	51.8	1	4	315	0.02	29.535 
18:05	55.4	55.4	55.4	88	51.9	1	3	270	0.00	29.535 
18:10	55.3	55.3	55.3	89	52.1	0	1	270	0.01	29.535 
18:15	55.3	55.3	55.3	89	52.1	0	2	270	0.00	29.535 
18:20	55.7	55.7	55.7	90	52.8	1	2	270	0.00	29.535 
18:25	56.0	56.0	56.0	90	53.1	1	2	248	0.00	29.535 
18:30	56.2	56.2	56.2	87	52.4	2	6	292	0.00	29.536 
18:35	56.5	56.5	56.5	86	52.4	2	3	270	0.00	29.536 
18:40	56.6	56.6	56.6	86	52.5	1	3	315	0.00	29.536 
18:45	56.6	56.6	56.6	84	51.8	1	5	315	0.00	29.533 
18:50	56.9	56.9	56.9	85	52.4	1	3	248	0.00	29.533 
18:55	56.9	56.9	56.9	85	52.4	1	3	292	0.00	29.533 
19:00	56.9	56.9	56.9	85	52.4	0	2	315	0.00	29.526 
19:05	56.9	56.9	56.9	84	52.1	1	3	292	0.00	29.526 
19:10	56.7	56.7	56.7	83	51.6	1	3	292	0.00	29.526 
19:15	56.7	56.7	56.7	84	51.9	0	3	270	0.00	29.514 
19:20	56.6	56.6	56.6	85	52.1	0	3	202	0.00	29.514 
19:25	56.5	56.5	56.5	85	52.0	0	1	202	0.00	29.514 
19:30	56.3	56.3	56.3	85	51.8	0	1	248	0.00	29.514 
19:35	56.3	56.3	56.3	85	51.8	0	1	248	0.00	29.514 
19:40	56.2	56.2	56.2	86	52.1	0	0	---	0.00	29.514 
19:45	56.0	56.0	56.0	86	51.9	0	0	---	0.00	29.511 
19:50	56.0	56.0	56.0	86	51.9	0	0	---	0.00	29.511 
19:55	56.0	56.0	56.0	87	52.2	0	0	---	0.00	29.511 
20:00	55.9	55.9	55.9	87	52.1	0	0	---	0.00	29.513 
20:05	55.9	55.9	55.9	88	52.4	0	0	---	0.00	29.513 
20:10	55.7	55.7	55.7	87	51.9	0	1	248	0.00	29.513 
20:15	55.7	55.7	55.7	88	52.2	0	0	---	0.00	29.501 
20:20	55.7	55.7	55.7	88	52.2	0	0	---	0.00	29.501 
20:25	55.7	55.7	55.7	88	52.2	0	0	---	0.00	29.501 
20:30	55.7	55.7	55.7	88	52.2	0	0	---	0.00	29.494 
20:35	55.6	55.6	55.6	89	52.4	0	0	---	0.00	29.494 
20:40	55.6	55.6	55.6	89	52.4	0	1	248	0.00	29.494 
20:45	55.4	55.4	55.4	89	52.2	0	1	248	0.00	29.493 
20:50	55.4	55.4	55.4	89	52.2	0	2	248	0.00	29.493 
20:55	55.3	55.3	55.3	89	52.1	0	1	248	0.00	29.493 
21:00	55.3	55.3	55.3	89	52.1	0	1	248	0.00	29.486 
21:05	55.3	55.3	55.3	89	52.1	0	1	248	0.00	29.486 
21:10	55.3	55.3	55.3	90	52.4	0	2	248	0.00	29.486 
21:15	55.4	55.4	55.4	90	52.5	0	2	248	0.00	29.495 
21:20	55.4	55.4	55.4	90	52.5	0	2	248	0.00	29.495 
21:25	55.4	55.4	55.4	90	52.5	0	2	248	0.00	29.495 
21:30	55.4	55.4	55.4	90	52.5	0	2	248	0.00	29.494 
21:35	55.4	55.4	55.4	90	52.5	1	4	248	0.00	29.494 
21:40	55.4	55.4	55.4	90	52.5	1	3	248	0.00	29.494 
21:45	55.4	55.4	55.4	90	52.5	0	3	248	0.00	29.497 
21:50	55.4	55.4	55.4	90	52.5	0	2	248	0.00	29.497 
21:55	55.4	55.4	55.4	90	52.5	0	2	248	0.00	29.497 
22:00	55.4	55.4	55.4	90	52.5	0	2	248	0.00	29.496 
22:05	55.4	55.4	55.4	90	52.5	1	3	248	0.00	29.496 
22:10	55.4	55.4	55.4	90	52.5	1	4	248	0.00	29.496 
22:15	55.3	55.3	55.3	90	52.4	1	3	248	0.00	29.493 
22:20	55.3	55.3	55.3	90	52.4	1	3	248	0.00	29.493 
22:25	55.3	55.3	55.3	90	52.4	0	1	248	0.00	29.493 
22:30	55.1	55.1	55.1	90	52.2	1	2	248	0.00	29.495 
22:35	55.1	55.1	55.1	90	52.2	1	2	248	0.00	29.495 
22:40	55.1	55.1	55.1	91	52.5	0	2	248	0.00	29.495 
22:45	55.1	55.1	55.1	91	52.5	1	3	248	0.00	29.492 
22:50	55.0	55.0	55.0	91	52.4	1	2	248	0.00	29.492 
22:55	55.0	55.0	55.0	91	52.4	1	3	248	0.01	29.492 
23:00	54.8	54.8	54.8	92	52.5	1	2	248	0.01	29.491 
23:05	54.8	54.8	54.8	92	52.5	1	3	248	0.01	29.491 
23:10	54.7	54.7	54.7	92	52.4	1	3	248	0.01	29.491 
23:15	54.5	54.5	54.5	92	52.2	0	1	248	0.00	29.473 
23:20	54.5	54.5	54.5	92	52.2	0	2	248	0.00	29.473 
23:25	54.5	54.5	54.5	93	52.5	0	1	248	0.00	29.473 
23:30	54.5	54.5	54.5	93	52.5	0	2	248	0.00	29.468 
23:35	54.4	54.4	54.4	93	52.4	0	2	248	0.00	29.468 
23:40	54.4	54.4	54.4	93	52.4	0	1	248	0.00	29.468 
23:45	54.4	54.4	54.4	93	52.4	0	1	248	0.00	29.469 
23:50	54.4	54.4	54.4	93	52.4	0	2	248	0.00	29.469 
23:55	54.4	54.4	54.4	94	52.7	0	2	248	0.01	29.469 

CoCoRaHS
IN-AL-39
A2 Web Hosting
Creative Commons License
GoDaddy
Look for:

loaded 2017-12-13 15:38:39 • last modified 2010-11-18 10:43:29
Privacy PolicyDisclaimer
• wx.awcolley.com is powered by PmWiki v.2002016 •
• all content (unless otherwise noted) © 2017 A W Colley